TimePDT,TemperatureF,Dew PointF,Humidity,Sea Level PressureIn,VisibilityMPH,Wind Direction,Wind SpeedMPH,Gust SpeedMPH,PrecipitationIn,Events,Conditions,WindDirDegrees,DateUTC
12:06 AM,53.6,53.6,100,29.95,10.0,Calm,Calm,-,N/A,,Overcast,0,2012-10-30 07:06:00
12:26 AM,53.6,53.6,100,29.95,10.0,SSE,3.5,-,0.01,Rain,Light Rain,160,2012-10-30 07:26:00
12:33 AM,53.6,53.6,100,29.95,8.0,SSE,3.5,-,0.01,Rain,Light Rain,160,2012-10-30 07:33:00
12:53 AM,53.1,53.1,100,29.95,8.0,Calm,Calm,-,0.03,Rain,Light Rain,0,2012-10-30 07:53:00
1:22 AM,53.6,53.6,100,29.92,4.0,Calm,Calm,-,0.03,Rain,Light Rain,0,2012-10-30 08:22:00
1:43 AM,53.6,53.6,100,29.91,3.0,Calm,Calm,-,0.06,Rain,Light Rain,0,2012-10-30 08:43:00
1:46 AM,53.6,53.6,100,29.91,2.5,Calm,Calm,-,0.06,Rain,Light Rain,0,2012-10-30 08:46:00
1:49 AM,53.6,51.8,94,29.91,1.8,Calm,Calm,-,0.06,Rain,Light Rain,0,2012-10-30 08:49:00
1:53 AM,53.1,52.0,96,29.91,1.5,NW,3.5,-,0.06,Rain,Light Rain,310,2012-10-30 08:53:00
2:01 AM,53.6,53.6,100,29.91,3.0,Calm,Calm,-,0.00,Rain,Light Rain,0,2012-10-30 09:01:00
2:46 AM,53.6,51.8,94,29.89,0.8,Calm,Calm,-,0.02,Rain,Light Rain,0,2012-10-30 09:46:00
2:53 AM,52.0,52.0,100,29.89,1.2,Calm,Calm,-,0.02,Rain,Light Rain,0,2012-10-30 09:53:00
2:58 AM,51.8,51.8,100,29.89,3.0,Calm,Calm,-,0.00,,Overcast,0,2012-10-30 09:58:00
3:14 AM,51.8,51.8,100,29.89,1.8,Calm,Calm,-,0.01,Rain,Light Rain,0,2012-10-30 10:14:00
3:27 AM,53.6,53.6,100,29.88,3.0,Calm,Calm,-,N/A,Rain,Light Rain,0,2012-10-30 10:27:00
3:36 AM,53.6,53.6,100,29.88,2.0,Calm,Calm,-,0.02,Rain,Light Rain,0,2012-10-30 10:36:00
3:48 AM,53.6,53.6,100,29.87,1.2,Calm,Calm,-,N/A,Rain,Rain,0,2012-10-30 10:48:00
3:53 AM,53.1,53.1,100,29.88,1.5,Calm,Calm,-,0.06,Rain,Light Rain,0,2012-10-30 10:53:00
3:57 AM,53.6,53.6,100,29.87,2.5,Calm,Calm,-,0.00,Rain,Light Rain,0,2012-10-30 10:57:00
4:04 AM,53.6,53.6,100,29.86,4.0,Calm,Calm,-,0.01,Rain,Light Rain,0,2012-10-30 11:04:00
4:53 AM,53.1,53.1,100,29.85,5.0,Calm,Calm,-,0.06,Rain,Light Rain,0,2012-10-30 11:53:00
4:59 AM,53.6,53.6,100,29.84,3.0,Calm,Calm,-,0.01,Rain,Rain,0,2012-10-30 11:59:00
5:06 AM,53.6,53.6,100,29.84,2.5,Calm,Calm,-,0.03,Rain,Light Rain,0,2012-10-30 12:06:00
5:43 AM,53.6,53.6,100,29.84,2.5,Calm,Calm,-,0.08,Rain,Light Rain,0,2012-10-30 12:43:00
5:53 AM,53.1,53.1,100,29.85,2.5,Calm,Calm,-,0.09,Rain,Light Rain,0,2012-10-30 12:53:00
6:15 AM,53.6,53.6,100,29.85,3.0,West,3.5,-,0.02,Rain,Light Rain,280,2012-10-30 13:15:00
6:28 AM,53.6,53.6,100,29.84,2.5,Calm,Calm,-,0.03,Rain,Light Rain,0,2012-10-30 13:28:00
6:48 AM,53.6,53.6,100,29.84,3.0,Calm,Calm,-,0.04,,Overcast,0,2012-10-30 13:48:00
6:53 AM,53.1,53.1,100,29.84,2.0,Calm,Calm,-,0.05,Rain,Rain,0,2012-10-30 13:53:00
7:25 AM,53.6,53.6,100,29.83,1.8,Calm,Calm,-,0.02,,Overcast,0,2012-10-30 14:25:00
7:35 AM,53.6,53.6,100,29.83,1.8,Calm,Calm,-,0.02,,Overcast,0,2012-10-30 14:35:00
7:44 AM,53.6,53.6,100,29.83,2.0,Calm,Calm,-,0.03,Rain,Light Rain,0,2012-10-30 14:44:00
7:49 AM,53.6,53.6,100,29.83,3.0,Calm,Calm,-,0.03,Rain,Light Rain,0,2012-10-30 14:49:00
7:53 AM,53.1,53.1,100,29.83,4.0,Calm,Calm,-,0.03,,Overcast,0,2012-10-30 14:53:00
8:05 AM,53.6,53.6,100,29.83,1.8,Calm,Calm,-,0.00,Rain,Light Rain,0,2012-10-30 15:05:00
8:16 AM,53.6,53.6,100,29.83,2.0,Calm,Calm,-,0.01,Rain,Light Rain,0,2012-10-30 15:16:00
8:45 AM,53.6,53.6,100,29.84,1.5,Calm,Calm,-,0.03,Rain,Light Rain,0,2012-10-30 15:45:00
8:53 AM,54.0,53.1,97,29.85,1.2,Calm,Calm,-,0.03,Rain,Light Rain,0,2012-10-30 15:53:00
9:12 AM,53.6,53.6,100,29.84,3.0,Calm,Calm,-,0.01,Rain,Light Rain,0,2012-10-30 16:12:00
9:18 AM,53.6,53.6,100,29.84,1.8,Calm,Calm,-,0.02,Rain,Light Rain,0,2012-10-30 16:18:00
9:38 AM,53.6,53.6,100,29.84,2.0,Calm,Calm,-,0.02,,Overcast,0,2012-10-30 16:38:00
9:45 AM,53.6,53.6,100,29.84,1.2,Calm,Calm,-,0.03,Rain,Light Rain,0,2012-10-30 16:45:00
9:53 AM,54.0,53.1,97,29.84,1.2,Calm,Calm,-,0.03,Rain,Light Rain,0,2012-10-30 16:53:00
10:38 AM,53.6,53.6,100,29.84,3.0,Calm,Calm,-,0.02,Rain,Light Rain,0,2012-10-30 17:38:00
10:53 AM,53.6,53.6,100,29.84,4.0,NW,3.5,-,N/A,Rain,Light Rain,320,2012-10-30 17:53:00
11:16 AM,55.4,53.6,94,29.83,6.0,Calm,Calm,-,0.03,Rain,Light Rain,0,2012-10-30 18:16:00
11:53 AM,55.0,55.0,100,29.83,6.0,Calm,Calm,-,0.05,Rain,Light Rain,0,2012-10-30 18:53:00
12:01 PM,55.4,55.4,100,29.83,10.0,Calm,Calm,-,0.01,Rain,Light Rain,0,2012-10-30 19:01:00
12:35 PM,55.4,55.4,100,29.82,5.0,Calm,Calm,-,0.06,Rain,Light Rain,0,2012-10-30 19:35:00
12:53 PM,55.9,55.9,100,29.81,4.0,Calm,Calm,-,0.09,Rain,Light Rain,0,2012-10-30 19:53:00
1:10 PM,55.4,55.4,100,29.81,1.8,Calm,Calm,-,0.05,Rain,Rain,0,2012-10-30 20:10:00
1:24 PM,55.4,55.4,100,29.80,1.2,Calm,Calm,-,0.12,Rain,Heavy Rain,0,2012-10-30 20:24:00
1:35 PM,55.4,55.4,100,29.79,2.0,NNE,3.5,-,0.18,Rain,Rain,20,2012-10-30 20:35:00
1:53 PM,55.9,55.9,100,29.78,3.0,NE,4.6,-,0.23,Rain,Light Rain,50,2012-10-30 20:53:00
2:19 PM,55.4,55.4,100,29.77,4.0,NE,3.5,-,0.06,Rain,Light Rain,40,2012-10-30 21:19:00
2:38 PM,55.4,55.4,100,29.77,2.5,Calm,Calm,-,0.09,Rain,Rain,0,2012-10-30 21:38:00
2:49 PM,55.4,55.4,100,29.77,3.0,Calm,Calm,-,0.12,Rain,Rain,0,2012-10-30 21:49:00
2:50 PM,55.9,55.0,97,29.77,3.0,Calm,Calm,-,0.12,Rain,Rain,0,2012-10-30 21:50:00
2:58 PM,55.4,55.4,100,29.77,2.5,NE,3.5,-,0.04,Rain,Rain,50,2012-10-30 21:58:00
3:19 PM,55.4,55.4,100,29.76,2.5,North,3.5,-,0.11,Rain,Rain,10,2012-10-30 22:19:00
3:39 PM,55.4,55.4,100,29.76,1.5,North,4.6,-,0.21,Rain,Heavy Rain,350,2012-10-30 22:39:00
3:46 PM,55.4,55.4,100,29.77,1.2,WNW,3.5,-,0.25,Rain,Rain,290,2012-10-30 22:46:00
3:53 PM,55.9,55.9,100,29.77,0.8,Calm,Calm,-,0.31,Rain,Heavy Rain,0,2012-10-30 22:53:00
4:02 PM,55.4,55.4,100,29.77,1.8,NW,4.6,-,0.04,Rain,Rain,320,2012-10-30 23:02:00
4:09 PM,55.4,55.4,100,29.77,2.5,Calm,Calm,-,0.06,Rain,Rain,0,2012-10-30 23:09:00
4:28 PM,55.4,55.4,100,29.76,4.0,Calm,Calm,-,0.11,Rain,Light Rain,0,2012-10-30 23:28:00
4:53 PM,55.0,55.0,100,29.76,5.0,North,4.6,-,0.15,Rain,Light Rain,350,2012-10-30 23:53:00
5:02 PM,55.4,53.6,94,29.75,5.0,Calm,Calm,-,N/A,Rain,Light Rain,0,2012-10-31 00:02:00
5:24 PM,55.4,55.4,100,29.75,1.8,Calm,Calm,-,0.04,Rain,Rain,0,2012-10-31 00:24:00
5:42 PM,55.4,55.4,100,29.75,2.0,Calm,Calm,-,0.13,Rain,Rain,0,2012-10-31 00:42:00
5:49 PM,55.4,55.4,100,29.74,3.0,Calm,Calm,-,0.15,Rain,Rain,0,2012-10-31 00:49:00
5:53 PM,55.0,55.0,100,29.75,4.0,Calm,Calm,-,0.16,Rain,Light Rain,0,2012-10-31 00:53:00
6:38 PM,55.4,55.4,100,29.73,7.0,ESE,5.8,-,0.06,Rain,Light Rain,120,2012-10-31 01:38:00
6:53 PM,55.0,55.0,100,29.74,6.0,ESE,4.6,-,0.07,Rain,Light Rain,120,2012-10-31 01:53:00
7:26 PM,55.4,55.4,100,29.73,4.0,Calm,Calm,-,0.02,Rain,Light Rain,0,2012-10-31 02:26:00
7:53 PM,55.9,55.9,100,29.73,6.0,Calm,Calm,-,0.03,Rain,Light Rain,0,2012-10-31 02:53:00
8:11 PM,55.4,55.4,100,29.73,2.5,Calm,Calm,-,0.01,Rain,Light Rain,0,2012-10-31 03:11:00
8:17 PM,55.4,55.4,100,29.73,3.0,Calm,Calm,-,N/A,Rain,Light Rain,0,2012-10-31 03:17:00
8:34 PM,55.4,55.4,100,29.73,7.0,Calm,Calm,-,0.01,Rain,Light Rain,0,2012-10-31 03:34:00
8:53 PM,55.9,55.9,100,29.73,4.0,Calm,Calm,-,0.03,Rain,Light Rain,0,2012-10-31 03:53:00
9:53 PM,57.0,55.9,96,29.73,6.0,Variable,3.5,-,0.09,Rain,Light Rain,0,2012-10-31 04:53:00
10:53 PM,57.0,55.9,96,29.74,7.0,SSW,4.6,-,0.07,Rain,Light Rain,200,2012-10-31 05:53:00
11:53 PM,57.0,55.9,96,29.73,7.0,Variable,3.5,-,0.05,Rain,Light Rain,0,2012-10-31 06:53:00